Time;durP1;ratioP1;P1;durP2;ratioP2;P2;SDS_P1;SDS_P2;PMS_P1;PMS_P2;Temp;Humidity;BMP_temperature;BMP_pressure;BME280_temperature;BME280_humidity;BME280_pressure;Samples;Min_cycle;Max_cycle;Signal;HPM_P1;HPM_P2
2022/12/01 00:00:05;;;;;;;;;;;27.90;93.40;;;;;;5111938;28;19912;-56
2022/12/01 00:02:31;;;;;;;;;;;27.90;93.50;;;;;;5104998;28;19980;-53
2022/12/01 00:04:57;;;;;;;;;;;27.80;93.50;;;;;;5103889;28;19950;-55
2022/12/01 00:07:24;;;;;;;;;;;27.80;93.50;;;;;;5105441;28;19908;-54
2022/12/01 00:12:34;;;;;;;;;;;27.80;93.60;;;;;;5105076;28;19946;-55
2022/12/01 00:15:00;;;;;;;;;;;27.70;93.60;;;;;;5105307;28;19904;-56
2022/12/01 00:17:27;;;;;;;;;;;27.70;93.60;;;;;;5086868;28;19977;-54
2022/12/01 00:19:55;;;;;;;;;;;27.80;93.60;;;;;;5105022;28;19943;-57
2022/12/01 00:22:21;;;;;;;;;;;27.80;93.40;;;;;;5105051;28;19975;-55
2022/12/01 00:24:47;;;;;;;;;;;27.80;93.40;;;;;;5105540;28;20122;-54
2022/12/01 00:27:13;;;;;;;;;;;27.80;93.40;;;;;;5104503;28;19943;-52
2022/12/01 00:29:39;;;;;;;;;;;27.80;93.50;;;;;;5103929;28;19907;-59
2022/12/01 00:32:09;;;;;;;;;;;27.70;93.50;;;;;;5087845;28;19912;-56
2022/12/01 00:34:36;;;;;;;;;;;27.80;93.60;;;;;;5089045;28;19904;-57
2022/12/01 00:37:03;;;;;;;;;;;27.70;93.50;;;;;;5104639;28;19967;-56
2022/12/01 00:39:29;;;;;;;;;;;27.70;93.50;;;;;;5104231;28;19904;-57
2022/12/01 00:41:58;;;;;;;;;;;27.70;93.70;;;;;;5104712;28;24083;-54
2022/12/01 00:44:24;;;;;;;;;;;27.60;93.70;;;;;;5104383;28;19962;-56
2022/12/01 00:46:50;;;;;;;;;;;27.70;93.60;;;;;;5104426;28;19915;-54
2022/12/01 00:49:16;;;;;;;;;;;27.60;93.70;;;;;;5104510;28;19907;-56
2022/12/01 00:51:42;;;;;;;;;;;27.60;93.70;;;;;;5086545;28;19947;-53
2022/12/01 00:54:10;;;;;;;;;;;27.60;93.60;;;;;;5104393;28;19931;-56
2022/12/01 00:56:36;;;;;;;;;;;27.50;93.60;;;;;;5104339;28;19916;-47
2022/12/01 00:59:02;;;;;;;;;;;27.60;93.60;;;;;;5114077;28;19919;-48
2022/12/01 01:01:28;;;;;;;;;;;27.40;93.70;;;;;;5130325;28;19904;-48
2022/12/01 01:03:54;;;;;;;;;;;27.30;93.80;;;;;;5128266;27;20065;-44
2022/12/01 01:06:22;;;;;;;;;;;27.30;93.90;;;;;;5136719;27;19908;-44
2022/12/01 01:08:48;;;;;;;;;;;27.30;94.00;;;;;;5119595;27;20071;-48
2022/12/01 01:11:14;;;;;;;;;;;27.20;94.00;;;;;;5141580;27;20104;-46
2022/12/01 01:13:40;;;;;;;;;;;27.20;94.00;;;;;;5143720;28;20210;-50
2022/12/01 01:16:09;;;;;;;;;;;27.20;94.10;;;;;;5158299;27;19907;-50
2022/12/01 01:18:35;;;;;;;;;;;27.10;94.00;;;;;;5140503;27;19979;-49
2022/12/01 01:21:04;;;;;;;;;;;27.10;94.00;;;;;;5142162;28;19959;-47
2022/12/01 01:23:31;;;;;;;;;;;27.00;94.10;;;;;;5142293;27;19903;-49
2022/12/01 01:26:00;;;;;;;;;;;27.00;93.90;;;;;;5152490;27;19940;-47
2022/12/01 01:28:26;;;;;;;;;;;27.00;94.00;;;;;;5155249;27;19938;-54
2022/12/01 01:30:53;;;;;;;;;;;27.00;94.10;;;;;;5165436;27;20192;-60
2022/12/01 01:33:20;;;;;;;;;;;27.00;93.90;;;;;;5165571;27;19903;-55
2022/12/01 01:35:46;;;;;;;;;;;27.00;94.00;;;;;;5164132;27;20012;-53
2022/12/01 01:38:12;;;;;;;;;;;27.10;93.80;;;;;;5165272;27;19930;-54
2022/12/01 01:40:45;;;;;;;;;;;27.10;93.80;;;;;;5165135;27;19907;-52
2022/12/01 01:43:15;;;;;;;;;;;27.20;93.70;;;;;;5165289;27;19903;-53
2022/12/01 01:45:41;;;;;;;;;;;27.20;93.70;;;;;;5165451;27;19914;-53
2022/12/01 01:48:09;;;;;;;;;;;27.20;93.60;;;;;;5145708;27;19964;-57
2022/12/01 01:50:35;;;;;;;;;;;27.20;93.70;;;;;;5164314;27;19918;-60
2022/12/01 01:53:03;;;;;;;;;;;27.20;94.00;;;;;;5165489;27;19943;-56
2022/12/01 01:55:31;;;;;;;;;;;27.10;93.70;;;;;;5146693;27;19907;-54
2022/12/01 01:57:58;;;;;;;;;;;27.10;93.80;;;;;;5165393;27;19903;-56
2022/12/01 02:00:24;;;;;;;;;;;27.10;93.90;;;;;;5165453;27;20258;-53
2022/12/01 02:02:50;;;;;;;;;;;27.10;94.00;;;;;;5146397;27;20019;-57
2022/12/01 02:05:22;;;;;;;;;;;27.00;94.00;;;;;;5165439;27;19944;-55
2022/12/01 02:07:50;;;;;;;;;;;27.00;94.00;;;;;;5165528;27;19907;-59
2022/12/01 02:10:21;;;;;;;;;;;27.00;94.20;;;;;;5159119;27;20145;-45
2022/12/01 02:12:53;;;;;;;;;;;27.00;94.10;;;;;;5138651;27;19991;-53
2022/12/01 02:15:27;;;;;;;;;;;27.00;94.10;;;;;;5147279;27;19907;-52
2022/12/01 02:18:17;;;;;;;;;;;27.00;94.10;;;;;;5128816;27;19903;-52
2022/12/01 02:21:02;;;;;;;;;;;27.00;94.10;;;;;;5159176;27;19907;-59
2022/12/01 02:23:28;;;;;;;;;;;27.00;94.20;;;;;;5144030;27;19907;-56
2022/12/01 02:25:54;;;;;;;;;;;26.90;94.10;;;;;;5147484;27;19908;-57
2022/12/01 02:28:42;;;;;;;;;;;26.90;94.00;;;;;;5147054;27;19925;-54
2022/12/01 02:31:14;;;;;;;;;;;26.90;94.30;;;;;;5147146;27;19911;-52
2022/12/01 02:33:40;;;;;;;;;;;26.90;94.20;;;;;;5147146;27;19904;-52
2022/12/01 02:36:09;;;;;;;;;;;26.80;94.20;;;;;;5142732;27;19914;-53
2022/12/01 02:38:38;;;;;;;;;;;26.80;94.10;;;;;;5143909;27;19903;-56
2022/12/01 02:41:15;;;;;;;;;;;26.80;94.20;;;;;;5138104;27;19942;-53
2022/12/01 02:43:50;;;;;;;;;;;26.80;94.20;;;;;;5126953;28;20178;-53
2022/12/01 02:46:23;;;;;;;;;;;26.80;94.30;;;;;;5127057;28;19907;-54
2022/12/01 02:48:51;;;;;;;;;;;26.70;94.30;;;;;;5126780;28;19943;-57
2022/12/01 02:51:37;;;;;;;;;;;26.60;94.40;;;;;;5126885;28;19980;-55
2022/12/01 02:54:04;;;;;;;;;;;26.60;94.40;;;;;;5127176;28;19907;-54
2022/12/01 02:56:30;;;;;;;;;;;26.60;94.50;;;;;;5126857;28;19907;-56
2022/12/01 02:58:56;;;;;;;;;;;26.50;94.50;;;;;;5140389;27;19934;-53
2022/12/01 03:01:31;;;;;;;;;;;26.50;94.30;;;;;;5147376;27;19915;-52
2022/12/01 03:04:01;;;;;;;;;;;26.50;94.50;;;;;;5128536;27;19915;-54
2022/12/01 03:07:05;;;;;;;;;;;26.50;94.40;;;;;;5147132;27;19971;-56
2022/12/01 03:09:51;;;;;;;;;;;26.60;94.30;;;;;;5044040;28;19916;-61
2022/12/01 03:12:25;;;;;;;;;;;26.50;94.30;;;;;;5032612;28;20007;-58
2022/12/01 03:14:54;;;;;;;;;;;26.50;94.30;;;;;;5101931;27;19903;-53
2022/12/01 03:17:24;;;;;;;;;;;26.50;94.30;;;;;;5150001;27;19915;-54
2022/12/01 03:19:56;;;;;;;;;;;26.50;94.30;;;;;;5168040;27;19951;-55
2022/12/01 03:22:24;;;;;;;;;;;26.50;94.20;;;;;;5165222;27;19990;-57
2022/12/01 03:24:52;;;;;;;;;;;26.50;94.20;;;;;;5134233;27;19911;-55
2022/12/01 03:27:20;;;;;;;;;;;26.60;94.10;;;;;;5142246;27;19982;-53
2022/12/01 03:29:48;;;;;;;;;;;26.50;94.10;;;;;;5167887;27;19906;-56
2022/12/01 03:32:18;;;;;;;;;;;26.50;94.00;;;;;;5148449;27;19946;-53
2022/12/01 03:34:44;;;;;;;;;;;26.50;94.00;;;;;;5167240;27;19907;-54
2022/12/01 03:37:14;;;;;;;;;;;26.50;94.10;;;;;;5139515;27;19908;-57
2022/12/01 03:39:41;;;;;;;;;;;26.50;94.20;;;;;;5142200;27;19911;-57
2022/12/01 03:42:11;;;;;;;;;;;26.50;94.00;;;;;;5142916;27;19907;-57
2022/12/01 03:44:48;;;;;;;;;;;26.50;94.00;;;;;;5167021;27;19978;-57
2022/12/01 03:47:19;;;;;;;;;;;26.40;94.10;;;;;;5146716;27;20045;-53
2022/12/01 03:49:46;;;;;;;;;;;26.40;94.10;;;;;;5129231;27;19911;-55
2022/12/01 03:52:13;;;;;;;;;;;26.50;94.00;;;;;;5107196;28;19914;-53
2022/12/01 03:54:52;;;;;;;;;;;26.40;93.90;;;;;;5126174;28;20184;-55
2022/12/01 03:57:24;;;;;;;;;;;26.40;93.90;;;;;;5125780;28;20210;-58
2022/12/01 03:59:51;;;;;;;;;;;26.40;94.00;;;;;;5125733;28;19953;-54
2022/12/01 04:02:17;;;;;;;;;;;26.40;94.00;;;;;;5137082;27;20004;-59
2022/12/01 04:04:43;;;;;;;;;;;26.40;94.00;;;;;;5131761;27;19904;-55
2022/12/01 04:07:12;;;;;;;;;;;26.40;93.90;;;;;;5136960;27;20051;-53
2022/12/01 04:09:40;;;;;;;;;;;26.40;93.80;;;;;;5131093;27;19908;-60
2022/12/01 04:14:51;;;;;;;;;;;26.40;93.90;;;;;;5125653;28;20198;-56
2022/12/01 04:17:18;;;;;;;;;;;26.30;93.90;;;;;;5127945;27;19922;-57
2022/12/01 04:19:44;;;;;;;;;;;26.40;93.90;;;;;;5146156;27;19928;-56
2022/12/01 04:22:10;;;;;;;;;;;26.30;93.90;;;;;;5141459;27;24094;-60
2022/12/01 04:24:36;;;;;;;;;;;26.30;93.90;;;;;;5133030;27;19938;-61
2022/12/01 04:27:03;;;;;;;;;;;26.30;93.80;;;;;;5124859;28;20241;-54
2022/12/01 04:29:29;;;;;;;;;;;26.30;94.00;;;;;;5133463;27;19907;-54
2022/12/01 04:31:56;;;;;;;;;;;26.30;93.90;;;;;;5141946;27;20068;-55
2022/12/01 04:34:23;;;;;;;;;;;26.30;94.00;;;;;;5107498;27;19974;-53
2022/12/01 04:36:49;;;;;;;;;;;26.30;94.10;;;;;;5134766;27;19907;-59
2022/12/01 04:39:15;;;;;;;;;;;26.30;94.00;;;;;;5138068;27;19944;-55
2022/12/01 04:41:41;;;;;;;;;;;26.30;93.90;;;;;;5130185;27;19908;-61
2022/12/01 04:44:08;;;;;;;;;;;26.30;94.00;;;;;;5131385;27;24121;-55
2022/12/01 04:46:35;;;;;;;;;;;26.20;94.00;;;;;;5129739;27;19903;-59
2022/12/01 04:49:01;;;;;;;;;;;26.20;93.90;;;;;;5124905;28;19903;-57
2022/12/01 04:51:27;;;;;;;;;;;26.20;94.00;;;;;;5124658;28;19978;-57
2022/12/01 04:53:53;;;;;;;;;;;26.20;94.00;;;;;;5125013;28;19908;-56
2022/12/01 04:56:19;;;;;;;;;;;26.20;93.90;;;;;;5132595;27;19911;-55
2022/12/01 04:58:45;;;;;;;;;;;26.20;93.90;;;;;;5124663;28;20632;-58
2022/12/01 05:01:13;;;;;;;;;;;26.20;94.00;;;;;;5124413;28;19943;-58
2022/12/01 05:03:40;;;;;;;;;;;26.20;94.00;;;;;;5124564;28;19904;-57
2022/12/01 05:06:08;;;;;;;;;;;26.20;93.80;;;;;;5124782;28;19937;-56
2022/12/01 05:08:34;;;;;;;;;;;26.20;93.80;;;;;;5124561;28;19927;-57
2022/12/01 05:11:01;;;;;;;;;;;26.20;93.60;;;;;;5124356;28;19929;-55
2022/12/01 05:13:27;;;;;;;;;;;26.10;93.50;;;;;;5124340;28;19903;-56
2022/12/01 05:15:54;;;;;;;;;;;26.20;93.50;;;;;;5123997;27;19914;-59
2022/12/01 05:18:20;;;;;;;;;;;26.10;93.50;;;;;;5138352;28;19903;-55
2022/12/01 05:20:58;;;;;;;;;;;26.20;93.40;;;;;;5145137;28;20107;-59
2022/12/01 05:23:25;;;;;;;;;;;26.10;93.20;;;;;;5140612;28;19906;-63
2022/12/01 05:25:51;;;;;;;;;;;26.10;93.10;;;;;;5124344;28;19907;-53
2022/12/01 05:28:18;;;;;;;;;;;26.10;93.20;;;;;;5132262;28;19903;-55
2022/12/01 05:30:45;;;;;;;;;;;26.10;93.10;;;;;;5127470;28;20136;-53
2022/12/01 05:33:11;;;;;;;;;;;26.10;93.20;;;;;;5124257;28;19911;-60
2022/12/01 05:35:37;;;;;;;;;;;26.10;93.30;;;;;;5124568;28;19945;-52
2022/12/01 05:38:03;;;;;;;;;;;26.00;93.20;;;;;;5124206;28;24064;-54
2022/12/01 05:40:29;;;;;;;;;;;26.00;93.30;;;;;;5124195;28;20305;-56
2022/12/01 05:42:56;;;;;;;;;;;26.00;93.40;;;;;;5124175;28;19903;-57
2022/12/01 05:45:22;;;;;;;;;;;26.00;93.40;;;;;;5124209;28;19938;-55
2022/12/01 05:47:48;;;;;;;;;;;25.90;93.30;;;;;;5124178;28;19899;-58
2022/12/01 05:50:14;;;;;;;;;;;25.90;93.20;;;;;;5128358;28;19907;-56
2022/12/01 05:52:40;;;;;;;;;;;25.90;93.30;;;;;;5128186;28;19945;-54
2022/12/01 05:55:07;;;;;;;;;;;25.90;93.30;;;;;;5128467;28;19910;-58
2022/12/01 05:57:33;;;;;;;;;;;25.90;93.40;;;;;;5127752;28;20032;-54
2022/12/01 06:00:00;;;;;;;;;;;25.90;93.30;;;;;;5144369;27;19919;-60
2022/12/01 06:02:26;;;;;;;;;;;25.90;93.30;;;;;;5159055;27;25087;-56
2022/12/01 06:04:52;;;;;;;;;;;25.90;93.40;;;;;;5148731;27;19904;-54
2022/12/01 06:07:19;;;;;;;;;;;25.80;93.40;;;;;;5148476;27;19907;-54
2022/12/01 06:09:45;;;;;;;;;;;25.80;93.40;;;;;;5148747;27;19958;-56
2022/12/01 06:12:12;;;;;;;;;;;25.80;93.50;;;;;;5148232;27;24090;-53
2022/12/01 06:14:38;;;;;;;;;;;25.80;93.50;;;;;;5148748;27;19910;-54
2022/12/01 06:17:10;;;;;;;;;;;25.80;93.50;;;;;;5148261;27;20147;-55
2022/12/01 06:19:37;;;;;;;;;;;25.80;93.60;;;;;;5149460;27;19904;-52
2022/12/01 06:22:03;;;;;;;;;;;25.80;93.50;;;;;;5130341;27;19907;-52
2022/12/01 06:24:29;;;;;;;;;;;25.70;93.50;;;;;;5148694;27;20110;-53
2022/12/01 06:26:55;;;;;;;;;;;25.70;93.40;;;;;;5148107;27;24117;-53
2022/12/01 06:29:21;;;;;;;;;;;25.70;93.60;;;;;;5148254;27;19908;-53
2022/12/01 06:31:48;;;;;;;;;;;25.70;93.50;;;;;;5148190;27;20183;-54
2022/12/01 06:34:14;;;;;;;;;;;25.70;93.50;;;;;;5148112;27;24099;-56
2022/12/01 06:36:40;;;;;;;;;;;25.70;93.50;;;;;;5147949;27;19904;-52
2022/12/01 06:39:09;;;;;;;;;;;25.70;93.50;;;;;;5148251;27;19903;-54
2022/12/01 06:41:36;;;;;;;;;;;25.70;93.50;;;;;;5147727;27;20148;-56
2022/12/01 06:44:02;;;;;;;;;;;25.60;93.60;;;;;;5148188;27;19922;-52
2022/12/01 06:46:29;;;;;;;;;;;25.70;93.80;;;;;;5147381;27;19915;-52
2022/12/01 06:48:55;;;;;;;;;;;25.60;93.70;;;;;;5147458;27;19959;-54
2022/12/01 06:51:21;;;;;;;;;;;25.60;93.70;;;;;;5147718;27;19964;-56
2022/12/01 06:53:47;;;;;;;;;;;25.60;93.70;;;;;;5147660;27;20167;-54
2022/12/01 06:56:13;;;;;;;;;;;25.60;93.90;;;;;;5147249;27;20099;-53
2022/12/01 06:58:39;;;;;;;;;;;25.70;93.80;;;;;;5147286;27;19918;-53
2022/12/01 07:01:12;;;;;;;;;;;25.70;93.80;;;;;;5147289;27;19907;-53
2022/12/01 07:03:38;;;;;;;;;;;25.70;93.90;;;;;;5147161;27;19903;-52
2022/12/01 07:06:05;;;;;;;;;;;25.60;93.80;;;;;;5147409;27;19910;-56
2022/12/01 07:08:31;;;;;;;;;;;25.70;93.90;;;;;;5147154;27;19903;-54
2022/12/01 07:11:01;;;;;;;;;;;25.70;93.90;;;;;;5146997;27;19957;-56
2022/12/01 07:13:28;;;;;;;;;;;25.70;93.90;;;;;;5146943;27;20117;-54
2022/12/01 07:15:54;;;;;;;;;;;25.70;93.90;;;;;;5128734;27;20183;-51
2022/12/01 07:18:20;;;;;;;;;;;25.70;93.90;;;;;;5146864;27;20202;-52
2022/12/01 07:20:46;;;;;;;;;;;25.80;93.90;;;;;;5145503;27;19915;-51
2022/12/01 07:23:12;;;;;;;;;;;25.70;93.90;;;;;;5137600;27;19903;-58
2022/12/01 07:25:38;;;;;;;;;;;25.70;93.80;;;;;;5126324;28;19982;-52
2022/12/01 07:28:05;;;;;;;;;;;25.70;93.90;;;;;;5129127;27;19908;-53
2022/12/01 07:30:31;;;;;;;;;;;25.70;93.80;;;;;;5135218;27;19912;-56
2022/12/01 07:32:57;;;;;;;;;;;25.70;93.90;;;;;;5126035;28;19904;-54
2022/12/01 07:35:23;;;;;;;;;;;25.70;93.80;;;;;;5126150;28;19907;-54
2022/12/01 07:37:55;;;;;;;;;;;25.70;93.90;;;;;;5126005;28;19900;-57
2022/12/01 07:40:22;;;;;;;;;;;25.70;93.90;;;;;;5126119;28;19931;-54
2022/12/01 07:42:48;;;;;;;;;;;25.70;93.90;;;;;;5125731;28;19941;-54
2022/12/01 07:45:14;;;;;;;;;;;25.60;93.90;;;;;;5126022;28;19904;-53
2022/12/01 07:47:40;;;;;;;;;;;25.50;94.00;;;;;;5125865;28;25121;-52
2022/12/01 07:50:07;;;;;;;;;;;25.50;93.90;;;;;;5125956;28;19926;-57
2022/12/01 07:52:33;;;;;;;;;;;25.50;94.00;;;;;;5125836;28;19912;-53
2022/12/01 07:54:59;;;;;;;;;;;25.50;93.90;;;;;;5126023;28;19911;-55
2022/12/01 07:57:25;;;;;;;;;;;25.50;94.00;;;;;;5125668;28;19953;-55
2022/12/01 07:59:51;;;;;;;;;;;25.50;93.90;;;;;;5125574;28;19978;-52
2022/12/01 08:02:18;;;;;;;;;;;25.50;93.80;;;;;;5125542;28;20210;-52
2022/12/01 08:04:44;;;;;;;;;;;25.50;93.90;;;;;;5125961;28;19907;-53
2022/12/01 08:07:10;;;;;;;;;;;25.50;93.80;;;;;;5125405;28;19904;-56
2022/12/01 08:09:36;;;;;;;;;;;25.40;93.80;;;;;;5125950;28;19908;-55
2022/12/01 08:12:02;;;;;;;;;;;25.50;93.70;;;;;;5124642;28;19915;-55
2022/12/01 08:14:28;;;;;;;;;;;25.50;93.60;;;;;;5125687;28;19904;-53
2022/12/01 08:16:54;;;;;;;;;;;25.40;93.60;;;;;;5125583;28;19943;-52
2022/12/01 08:19:20;;;;;;;;;;;25.40;93.50;;;;;;5125188;28;19942;-57
2022/12/01 08:21:46;;;;;;;;;;;25.40;93.40;;;;;;5125603;28;19912;-54
2022/12/01 08:24:13;;;;;;;;;;;25.40;93.40;;;;;;5125668;28;19966;-57
2022/12/01 08:26:39;;;;;;;;;;;25.40;93.30;;;;;;5125083;28;24088;-56
2022/12/01 08:29:05;;;;;;;;;;;25.40;93.40;;;;;;5124747;28;19903;-53
2022/12/01 08:31:34;;;;;;;;;;;25.40;93.30;;;;;;5125402;28;19911;-53
2022/12/01 08:34:00;;;;;;;;;;;25.40;93.20;;;;;;5125128;28;20222;-56
2022/12/01 08:36:26;;;;;;;;;;;25.40;93.20;;;;;;5124649;28;19946;-54
2022/12/01 08:38:53;;;;;;;;;;;25.50;93.40;;;;;;5125418;28;19907;-57
2022/12/01 08:41:20;;;;;;;;;;;25.40;93.40;;;;;;5124784;28;20209;-53
2022/12/01 08:43:46;;;;;;;;;;;25.40;93.40;;;;;;5124799;28;19907;-56
2022/12/01 08:46:12;;;;;;;;;;;25.50;93.50;;;;;;5129629;27;19945;-50
2022/12/01 08:48:39;;;;;;;;;;;25.40;93.60;;;;;;5127995;27;19908;-55
2022/12/01 08:51:13;;;;;;;;;;;25.40;93.50;;;;;;5139070;27;20099;-55
2022/12/01 08:53:42;;;;;;;;;;;25.40;93.50;;;;;;5131742;27;19951;-52
2022/12/01 08:56:11;;;;;;;;;;;25.40;93.60;;;;;;5134660;27;19911;-53
2022/12/01 08:58:37;;;;;;;;;;;25.40;93.70;;;;;;5145389;27;19911;-53
2022/12/01 09:01:06;;;;;;;;;;;25.40;93.60;;;;;;5145051;27;19908;-53
2022/12/01 09:03:33;;;;;;;;;;;25.40;93.70;;;;;;5132632;28;19945;-56
2022/12/01 09:06:02;;;;;;;;;;;25.40;93.60;;;;;;5124388;28;19915;-53
2022/12/01 09:08:31;;;;;;;;;;;25.40;93.70;;;;;;5124883;27;19941;-51
2022/12/01 09:10:58;;;;;;;;;;;25.40;93.80;;;;;;5138934;27;19915;-56
2022/12/01 09:13:24;;;;;;;;;;;25.40;93.80;;;;;;5124574;28;19912;-54
2022/12/01 09:15:58;;;;;;;;;;;25.40;93.80;;;;;;5124379;28;19912;-55
2022/12/01 09:18:24;;;;;;;;;;;25.40;93.80;;;;;;5126646;27;24077;-54
2022/12/01 09:20:50;;;;;;;;;;;25.40;93.70;;;;;;5135681;28;19907;-54
2022/12/01 09:23:17;;;;;;;;;;;25.40;93.60;;;;;;5136145;27;19911;-58
2022/12/01 09:25:43;;;;;;;;;;;25.40;93.60;;;;;;5145709;27;19951;-53
2022/12/01 09:28:09;;;;;;;;;;;25.40;93.70;;;;;;5132030;27;19922;-54
2022/12/01 09:30:35;;;;;;;;;;;25.40;93.70;;;;;;5149099;27;19912;-53
2022/12/01 09:33:01;;;;;;;;;;;25.40;93.80;;;;;;5149156;27;19911;-60
2022/12/01 09:35:29;;;;;;;;;;;25.40;93.70;;;;;;5148280;27;19907;-57
2022/12/01 09:37:56;;;;;;;;;;;25.40;93.70;;;;;;5128487;28;19903;-54
2022/12/01 09:40:25;;;;;;;;;;;25.40;93.60;;;;;;5128460;28;19908;-57
2022/12/01 09:42:51;;;;;;;;;;;25.40;93.60;;;;;;5128457;28;19908;-55
2022/12/01 09:45:23;;;;;;;;;;;25.40;93.50;;;;;;5132542;27;19915;-57
2022/12/01 09:47:49;;;;;;;;;;;25.40;93.50;;;;;;5142165;27;19926;-59
2022/12/01 09:50:18;;;;;;;;;;;25.30;93.60;;;;;;5149206;27;19911;-53
2022/12/01 09:52:56;;;;;;;;;;;25.30;93.60;;;;;;5140394;27;19903;-54
2022/12/01 09:55:23;;;;;;;;;;;25.40;93.50;;;;;;5134181;27;20164;-56
2022/12/01 09:57:50;;;;;;;;;;;25.30;93.50;;;;;;5127877;27;19903;-55
2022/12/01 10:00:19;;;;;;;;;;;25.30;93.60;;;;;;5129757;27;19922;-54
2022/12/01 10:02:51;;;;;;;;;;;25.30;93.50;;;;;;5143859;27;19903;-57
2022/12/01 10:05:21;;;;;;;;;;;25.30;93.60;;;;;;5128008;28;20017;-54
2022/12/01 10:07:51;;;;;;;;;;;25.30;93.60;;;;;;5136072;27;19903;-51
2022/12/01 10:10:22;;;;;;;;;;;25.30;93.50;;;;;;5148408;27;20199;-55
2022/12/01 10:12:48;;;;;;;;;;;25.30;93.50;;;;;;5148540;27;19942;-54
2022/12/01 10:15:20;;;;;;;;;;;25.30;93.50;;;;;;5148701;27;20264;-56
2022/12/01 10:18:09;;;;;;;;;;;25.30;93.60;;;;;;5142928;27;19907;-59
2022/12/01 10:20:40;;;;;;;;;;;25.30;93.70;;;;;;5088539;28;19915;-55
2022/12/01 10:23:06;;;;;;;;;;;25.30;93.70;;;;;;5129267;27;19903;-53
2022/12/01 10:25:37;;;;;;;;;;;25.30;93.60;;;;;;5127572;28;19907;-55
2022/12/01 10:28:16;;;;;;;;;;;25.30;93.60;;;;;;5127794;27;19906;-58
2022/12/01 10:30:52;;;;;;;;;;;25.30;93.60;;;;;;5147762;27;19912;-56
2022/12/01 10:33:26;;;;;;;;;;;25.30;93.30;;;;;;5147638;27;19927;-55
2022/12/01 10:35:52;;;;;;;;;;;25.30;93.30;;;;;;5147286;27;19908;-55
2022/12/01 10:38:24;;;;;;;;;;;25.30;93.10;;;;;;5147792;27;24101;-57
2022/12/01 10:40:52;;;;;;;;;;;25.20;93.20;;;;;;5143172;27;19907;-54
2022/12/01 10:43:19;;;;;;;;;;;25.30;93.20;;;;;;5127039;28;19932;-55
2022/12/01 10:45:47;;;;;;;;;;;25.20;93.10;;;;;;5127044;28;19908;-58
2022/12/01 10:48:16;;;;;;;;;;;25.20;93.10;;;;;;5127268;28;19910;-56
2022/12/01 10:50:44;;;;;;;;;;;25.20;93.00;;;;;;5126943;28;19972;-57
2022/12/01 10:53:39;;;;;;;;;;;25.20;92.90;;;;;;5126728;28;19920;-58
2022/12/01 10:56:11;;;;;;;;;;;25.20;93.00;;;;;;5109853;27;19950;-58
2022/12/01 10:58:51;;;;;;;;;;;25.20;92.90;;;;;;5145948;27;19915;-57
2022/12/01 11:01:30;;;;;;;;;;;25.20;92.80;;;;;;5118540;28;19927;-56
2022/12/01 11:03:56;;;;;;;;;;;25.20;92.80;;;;;;5106618;28;19915;-55
2022/12/01 11:06:25;;;;;;;;;;;25.20;93.20;;;;;;5106330;28;19939;-57
2022/12/01 11:08:59;;;;;;;;;;;25.20;93.00;;;;;;5125172;27;19904;-58
2022/12/01 11:11:33;;;;;;;;;;;25.20;92.90;;;;;;5107304;28;19912;-55
2022/12/01 11:14:01;;;;;;;;;;;25.20;93.00;;;;;;5108266;28;20080;-56
2022/12/01 11:16:35;;;;;;;;;;;25.20;92.90;;;;;;5126397;28;19971;-55
2022/12/01 11:19:13;;;;;;;;;;;25.20;92.90;;;;;;5117991;28;19912;-56
2022/12/01 11:21:50;;;;;;;;;;;25.20;92.90;;;;;;5117149;28;19911;-54
2022/12/01 11:24:25;;;;;;;;;;;25.20;92.90;;;;;;5106016;28;20103;-54
2022/12/01 11:26:51;;;;;;;;;;;25.30;93.00;;;;;;5105744;28;20034;-54
2022/12/01 11:29:29;;;;;;;;;;;25.20;93.00;;;;;;5105385;28;19904;-50
2022/12/01 11:31:56;;;;;;;;;;;25.30;93.10;;;;;;5108837;28;20160;-55
2022/12/01 11:34:24;;;;;;;;;;;25.30;93.00;;;;;;5118384;28;19948;-53
2022/12/01 11:36:52;;;;;;;;;;;25.30;93.00;;;;;;5119935;28;19904;-56
2022/12/01 11:39:25;;;;;;;;;;;25.30;93.00;;;;;;5114874;28;19931;-54
2022/12/01 11:41:55;;;;;;;;;;;25.30;93.00;;;;;;5108878;28;20190;-61
2022/12/01 11:44:22;;;;;;;;;;;25.40;93.00;;;;;;5117512;28;19904;-60
2022/12/01 11:46:48;;;;;;;;;;;25.40;93.00;;;;;;5103754;28;19974;-53
2022/12/01 11:49:19;;;;;;;;;;;25.50;93.10;;;;;;5104113;28;19904;-53
2022/12/01 11:51:45;;;;;;;;;;;25.50;93.10;;;;;;5103923;28;19955;-56
2022/12/01 11:54:13;;;;;;;;;;;25.60;93.10;;;;;;5104365;28;19911;-52
2022/12/01 11:56:40;;;;;;;;;;;25.60;93.10;;;;;;5112224;28;19938;-52
2022/12/01 11:59:26;;;;;;;;;;;25.70;93.10;;;;;;5117468;28;19983;-54
2022/12/01 12:02:00;;;;;;;;;;;25.70;93.20;;;;;;5121949;28;19957;-54
2022/12/01 12:04:45;;;;;;;;;;;25.80;93.20;;;;;;5118663;28;19915;-53
2022/12/01 12:07:43;;;;;;;;;;;25.80;93.10;;;;;;5105166;28;20192;-57
2022/12/01 12:10:28;;;;;;;;;;;25.80;93.20;;;;;;5081927;28;19911;-54
2022/12/01 12:13:02;;;;;;;;;;;25.80;93.10;;;;;;5124822;28;19908;-59
2022/12/01 12:15:34;;;;;;;;;;;25.90;93.20;;;;;;5118512;28;19916;-56
2022/12/01 12:18:07;;;;;;;;;;;25.90;93.20;;;;;;5122543;28;19975;-55
2022/12/01 12:20:40;;;;;;;;;;;25.90;93.20;;;;;;5104690;28;19907;-52
2022/12/01 12:23:09;;;;;;;;;;;26.00;93.40;;;;;;5105024;28;19904;-53
2022/12/01 12:25:54;;;;;;;;;;;26.00;93.30;;;;;;5104681;28;19908;-54
2022/12/01 12:28:42;;;;;;;;;;;26.10;93.40;;;;;;5104815;28;19900;-58
2022/12/01 12:31:08;;;;;;;;;;;26.10;93.20;;;;;;5104513;28;19912;-55
2022/12/01 12:34:07;;;;;;;;;;;26.10;93.20;;;;;;5104580;28;19904;-54
2022/12/01 12:36:39;;;;;;;;;;;26.10;93.20;;;;;;5066365;28;19979;-55
2022/12/01 12:39:11;;;;;;;;;;;26.20;93.30;;;;;;5104914;28;19963;-59
2022/12/01 12:41:51;;;;;;;;;;;26.20;93.20;;;;;;5115313;28;19912;-53
2022/12/01 12:44:32;;;;;;;;;;;26.30;93.30;;;;;;5106649;28;19904;-59
2022/12/01 12:47:22;;;;;;;;;;;26.30;93.30;;;;;;5104257;28;20211;-54
2022/12/01 12:50:06;;;;;;;;;;;26.30;93.10;;;;;;5096488;28;20118;-54
2022/12/01 12:52:34;;;;;;;;;;;26.40;93.30;;;;;;5104617;28;19983;-53
2022/12/01 12:55:24;;;;;;;;;;;26.40;93.20;;;;;;5106273;28;19911;-53
2022/12/01 12:57:55;;;;;;;;;;;26.40;92.90;;;;;;5107829;28;20229;-60
2022/12/01 13:00:24;;;;;;;;;;;26.40;92.90;;;;;;5135129;27;19982;-55
2022/12/01 13:02:59;;;;;;;;;;;26.40;92.70;;;;;;5124499;28;19980;-57
2022/12/01 13:05:30;;;;;;;;;;;26.40;92.70;;;;;;5124856;28;20096;-56
2022/12/01 13:08:07;;;;;;;2.78;1.30;;;26.40;92.80;;;;;;5123974;28;19903;-55
2022/12/01 13:10:48;;;;;;;2.92;1.17;;;26.50;92.60;;;;;;5124344;28;20428;-54
2022/12/01 13:13:30;;;;;;;2.88;1.20;;;26.50;92.40;;;;;;5134817;28;20027;-53
2022/12/01 13:16:01;;;;;;;4.18;1.10;;;26.50;92.20;;;;;;5145061;28;20060;-56
2022/12/01 13:18:36;;;;;;;2.78;1.30;;;26.50;92.20;;;;;;5165014;27;20286;-53
2022/12/01 13:21:04;;;;;;;2.95;1.20;;;26.50;92.30;;;;;;5165875;27;20019;-55
2022/12/01 13:23:32;;;;;;;1.92;1.35;;;26.50;92.10;;;;;;5165663;27;20044;-55
2022/12/01 13:26:04;;;;;;;5.80;1.77;;;26.50;92.10;;;;;;5165681;27;20041;-56
2022/12/01 13:28:35;;;;;;;;;;;26.60;92.00;;;;;;5165246;27;20509;-53
2022/12/01 13:31:08;;;;;;;;;;;26.60;91.90;;;;;;5165298;27;19914;-53
2022/12/01 13:33:35;;;;;;;;;;;26.60;91.90;;;;;;5165593;27;20044;-53
2022/12/01 13:36:06;;;;;;;;;;;26.60;91.50;;;;;;5165358;27;20183;-54
2022/12/01 13:38:33;;;;;;;;;;;26.60;91.80;;;;;;5165244;27;19903;-52
2022/12/01 13:41:13;;;;;;;;;;;26.60;91.60;;;;;;5146808;27;19907;-53
2022/12/01 13:43:46;;;;;;;;;;;26.60;91.30;;;;;;5152129;27;19904;-51
2022/12/01 13:46:23;;;;;;;;;;;26.70;91.10;;;;;;5143480;28;20085;-51
2022/12/01 13:48:55;;;;;;;;;;;26.70;91.40;;;;;;5128263;28;20076;-53
2022/12/01 13:51:22;;;;;;;;;;;26.70;91.10;;;;;;5123754;28;19911;-55
2022/12/01 13:54:02;;;;;;;;;;;26.70;91.10;;;;;;5124204;28;19903;-57
2022/12/01 13:56:37;;;;;;;;;;;26.80;91.60;;;;;;5124354;28;20282;-54
2022/12/01 13:59:23;;;;;;;;;;;26.80;91.20;;;;;;5137110;28;19915;-57
2022/12/01 14:02:05;;;;;;;;;;;26.80;90.80;;;;;;5144298;28;19914;-60
2022/12/01 14:04:31;;;;;;;;;;;26.80;90.80;;;;;;5144647;28;19899;-53
2022/12/01 14:07:26;;;;;;;;;;;26.80;91.00;;;;;;5144180;28;20048;-59
2022/12/01 14:09:56;;;;;;;;;;;26.80;90.90;;;;;;5127853;27;19971;-54
2022/12/01 14:12:33;;;;;;;;;;;26.90;90.70;;;;;;5148288;27;20004;-57
2022/12/01 14:15:19;;;;;;;;;;;26.80;90.10;;;;;;5134506;27;20213;-53
2022/12/01 14:17:45;;;;;;;;;;;26.80;90.10;;;;;;5126950;28;20192;-53
2022/12/01 14:20:21;;;;;;;;;;;26.90;90.30;;;;;;5128038;28;20001;-54
2022/12/01 14:23:01;;;;;;;;;;;26.90;89.90;;;;;;5127441;28;20373;-56
2022/12/01 14:25:29;;;;;;;;;;;26.90;90.10;;;;;;5127176;28;19948;-55
2022/12/01 14:27:57;;;;;;;;;;;26.90;90.10;;;;;;5128898;27;19918;-59
2022/12/01 14:30:41;;;;;;;;;;;26.90;90.00;;;;;;5136808;27;19918;-56
2022/12/01 14:33:26;;;;;;;;;;;26.90;89.40;;;;;;5147171;27;19966;-57